createdAt,value
2023-05-19T00:01:21.892Z,15.46
2023-05-19T00:04:03.021Z,15.43
2023-05-19T00:06:38.177Z,15.43
2023-05-19T00:09:17.813Z,15.42
2023-05-19T00:22:27.812Z,15.30
2023-05-19T00:25:03.474Z,15.29
2023-05-19T00:27:36.813Z,15.28
2023-05-19T00:30:10.988Z,15.26
2023-05-19T00:32:45.104Z,15.24
2023-05-19T00:35:20.309Z,15.23
2023-05-19T00:48:10.870Z,15.22
2023-05-19T00:50:51.837Z,15.22
2023-05-19T00:53:25.690Z,15.22
2023-05-19T00:55:58.788Z,15.23
2023-05-19T00:58:35.836Z,15.23
2023-05-19T01:14:57.810Z,15.15
2023-05-19T01:17:41.333Z,15.16
2023-05-19T01:20:29.984Z,15.17
2023-05-19T01:23:25.941Z,15.18
2023-05-19T01:26:43.813Z,15.19
2023-05-19T01:29:41.530Z,15.18
2023-05-19T01:42:39.800Z,15.14
2023-05-19T01:45:19.826Z,15.13
2023-05-19T01:47:58.271Z,15.10
2023-05-19T01:50:39.833Z,15.08
2023-05-19T01:53:13.248Z,15.06
2023-05-19T01:55:52.813Z,15.01
2023-05-19T02:09:12.819Z,14.78
2023-05-19T02:11:55.593Z,14.76
2023-05-19T02:14:43.817Z,14.70
2023-05-19T02:17:20.219Z,14.68
2023-05-19T02:20:00.810Z,14.68
2023-05-19T02:33:54.996Z,14.71
2023-05-19T02:36:28.085Z,14.73
2023-05-19T02:39:01.802Z,14.73
2023-05-19T02:41:35.210Z,14.72
2023-05-19T02:44:08.798Z,14.71
2023-05-19T02:46:42.194Z,14.67
2023-05-19T02:49:17.808Z,14.65
2023-05-19T03:02:27.885Z,14.53
2023-05-19T03:05:03.681Z,14.51
2023-05-19T03:07:36.830Z,14.49
2023-05-19T03:10:10.482Z,14.46
2023-05-19T03:12:43.800Z,14.41
2023-05-19T03:15:17.474Z,14.40
2023-05-19T03:28:07.782Z,14.27
2023-05-19T03:30:47.811Z,14.23
2023-05-19T03:33:25.045Z,14.22
2023-05-19T03:36:06.849Z,14.22
2023-05-19T03:38:40.345Z,14.21
2023-05-19T03:54:55.814Z,14.16
2023-05-19T03:57:29.163Z,14.15
2023-05-19T04:00:02.844Z,14.14
2023-05-19T04:02:39.710Z,14.11
2023-05-19T04:05:20.785Z,14.09
2023-05-19T04:07:54.140Z,14.10
2023-05-19T04:10:29.862Z,14.10
2023-05-19T04:20:53.781Z,14.05
2023-05-19T04:23:33.800Z,14.03
2023-05-19T04:26:09.058Z,14.02
2023-05-19T04:28:42.812Z,14.05
2023-05-19T04:31:16.123Z,14.03
2023-05-19T04:33:49.819Z,14.03
2023-05-19T04:47:39.851Z,14.03
2023-05-19T04:50:13.175Z,14.02
2023-05-19T04:52:46.803Z,14.03
2023-05-19T04:55:20.435Z,14.03
2023-05-19T04:57:55.812Z,14.06
2023-05-19T05:00:29.287Z,14.06
2023-05-19T05:16:48.828Z,14.15
2023-05-19T05:19:25.674Z,14.17
2023-05-19T05:22:06.783Z,14.18
2023-05-19T05:24:41.617Z,14.22
2023-05-19T05:27:15.795Z,14.25
2023-05-19T05:29:51.496Z,14.28
2023-05-19T05:42:43.754Z,14.43
2023-05-19T05:45:27.796Z,14.45
2023-05-19T05:48:03.025Z,14.47
2023-05-19T05:50:39.817Z,14.48
2023-05-19T05:53:19.531Z,14.53
2023-05-19T06:09:06.808Z,14.59
2023-05-19T06:11:40.278Z,14.59
2023-05-19T06:14:13.797Z,14.59
2023-05-19T06:17:12.440Z,14.61
2023-05-19T06:19:52.797Z,14.63
2023-05-19T06:36:29.789Z,15.43
2023-05-19T06:39:09.808Z,15.56
2023-05-19T06:41:43.029Z,15.69
2023-05-19T06:44:42.793Z,15.80
2023-05-19T06:47:21.628Z,15.89
2023-05-19T06:50:01.859Z,15.99
2023-05-19T07:03:15.959Z,16.53
2023-05-19T07:05:49.222Z,16.67
2023-05-19T07:08:22.824Z,16.77
2023-05-19T07:10:59.408Z,16.90
2023-05-19T07:13:39.782Z,16.99
2023-05-19T07:30:04.814Z,17.44
2023-05-19T07:32:44.892Z,17.46
2023-05-19T07:35:20.720Z,17.50
2023-05-19T07:37:53.814Z,17.54
2023-05-19T07:40:27.188Z,17.57
2023-05-19T07:43:00.785Z,17.60
2023-05-19T07:45:36.187Z,17.62
2023-05-19T07:55:00.121Z,17.55
2023-05-19T07:57:34.056Z,17.54
2023-05-19T08:00:07.831Z,17.54
2023-05-19T08:02:44.173Z,17.51
2023-05-19T08:05:24.803Z,17.48
2023-05-19T08:08:00.832Z,17.44
2023-05-19T08:10:35.084Z,17.44
2023-05-19T08:23:47.791Z,17.47
2023-05-19T08:26:21.002Z,17.52
2023-05-19T08:28:54.798Z,17.60
2023-05-19T08:31:28.088Z,17.71
2023-05-19T08:34:01.840Z,17.80
2023-05-19T08:50:45.783Z,18.14
2023-05-19T08:53:34.363Z,18.16
2023-05-19T08:56:14.337Z,18.17
2023-05-19T08:58:57.835Z,18.17
2023-05-19T09:01:31.794Z,18.17
2023-05-19T09:04:05.864Z,18.13
2023-05-19T09:17:17.781Z,18.09
2023-05-19T09:19:51.068Z,18.09
2023-05-19T09:22:24.807Z,18.09
2023-05-19T09:24:58.660Z,18.10
2023-05-19T09:27:31.813Z,18.11
2023-05-19T09:30:08.844Z,18.15
2023-05-19T09:43:05.789Z,18.35
2023-05-19T09:45:45.835Z,18.37
2023-05-19T09:48:19.065Z,18.43
2023-05-19T09:50:52.804Z,18.49
2023-05-19T09:53:26.137Z,18.56
2023-05-19T09:56:02.788Z,18.60
2023-05-19T10:09:14.805Z,18.73
2023-05-19T10:11:48.489Z,18.78
2023-05-19T10:14:23.816Z,18.79
2023-05-19T10:16:58.868Z,18.85
2023-05-19T10:19:34.921Z,18.87
2023-05-19T10:22:08.210Z,18.85
2023-05-19T10:24:43.827Z,18.89
2023-05-19T10:38:01.808Z,19.06
2023-05-19T10:40:53.263Z,19.13
2023-05-19T10:43:55.797Z,19.15
2023-05-19T10:46:29.843Z,19.16
2023-05-19T10:49:02.883Z,19.20
2023-05-19T11:02:15.891Z,19.17
2023-05-19T11:04:51.610Z,19.22
2023-05-19T11:07:33.824Z,19.28
2023-05-19T11:10:08.449Z,19.31
2023-05-19T11:15:27.624Z,19.33
2023-05-19T11:28:57.800Z,19.39
2023-05-19T11:31:37.906Z,19.45
2023-05-19T11:34:16.822Z,19.52
2023-05-19T11:36:57.805Z,19.59
2023-05-19T11:39:32.753Z,19.58
2023-05-19T11:55:52.996Z,19.52
2023-05-19T11:58:33.819Z,19.51
2023-05-19T12:01:12.290Z,19.48
2023-05-19T12:03:53.164Z,19.45
2023-05-19T12:06:28.510Z,19.47
2023-05-19T12:09:02.893Z,19.47
2023-05-19T12:11:38.062Z,19.49
2023-05-19T12:24:27.773Z,19.82
2023-05-19T12:27:17.813Z,19.86
2023-05-19T12:29:52.517Z,19.84
2023-05-19T12:32:29.850Z,19.81
2023-05-19T12:35:04.858Z,19.81
2023-05-19T12:50:58.792Z,19.82
2023-05-19T12:53:33.154Z,19.80
2023-05-19T12:56:06.819Z,19.76
2023-05-19T12:58:40.710Z,19.72
2023-05-19T13:01:22.084Z,19.67
2023-05-19T13:18:00.814Z,19.35
2023-05-19T13:20:40.817Z,19.32
2023-05-19T13:23:15.245Z,19.34
2023-05-19T13:25:55.813Z,19.34
2023-05-19T13:28:29.088Z,19.36
2023-05-19T13:31:02.933Z,19.36
2023-05-19T13:44:14.817Z,19.30
2023-05-19T13:46:49.243Z,19.27
2023-05-19T13:49:23.816Z,19.23
2023-05-19T13:51:57.664Z,19.19
2023-05-19T13:54:31.834Z,19.16
2023-05-19T13:57:05.635Z,19.14
2023-05-19T14:09:55.774Z,19.05
2023-05-19T14:12:49.307Z,19.03
2023-05-19T14:15:29.104Z,18.97
2023-05-19T14:18:05.066Z,18.94
2023-05-19T14:20:39.109Z,18.89
2023-05-19T14:23:12.865Z,18.84
2023-05-19T14:25:48.488Z,18.83
2023-05-19T14:38:36.799Z,18.70
2023-05-19T14:41:18.797Z,18.67
2023-05-19T14:43:52.101Z,18.64
2023-05-19T14:46:25.833Z,18.63
2023-05-19T14:48:59.033Z,18.63
2023-05-19T14:51:33.639Z,18.63
2023-05-19T15:04:45.819Z,18.53
2023-05-19T15:07:19.066Z,18.51
2023-05-19T15:09:52.825Z,18.48
2023-05-19T15:12:26.069Z,18.48
2023-05-19T15:14:59.800Z,18.49
2023-05-19T15:17:33.530Z,18.48
2023-05-19T15:30:23.791Z,18.31
2023-05-19T15:33:03.873Z,18.28
2023-05-19T15:35:37.064Z,18.26
2023-05-19T15:38:10.823Z,18.24
2023-05-19T15:40:44.230Z,18.21
2023-05-19T15:43:17.817Z,18.17
2023-05-19T15:45:53.008Z,18.16
2023-05-19T15:58:41.787Z,18.06
2023-05-19T16:01:24.851Z,18.03
2023-05-19T16:03:58.216Z,18.00
2023-05-19T16:06:31.802Z,17.98
2023-05-19T16:09:05.271Z,17.94
2023-05-19T16:11:38.817Z,17.90
2023-05-19T16:24:51.084Z,17.77
2023-05-19T16:27:24.093Z,17.76
2023-05-19T16:29:57.868Z,17.73
2023-05-19T16:32:31.961Z,17.71
2023-05-19T16:35:05.839Z,17.68
2023-05-19T16:51:27.793Z,17.59
2023-05-19T16:54:07.821Z,17.57
2023-05-19T16:56:41.344Z,17.55
2023-05-19T16:59:15.815Z,17.55
2023-05-19T17:02:04.897Z,17.52
2023-05-19T17:04:44.803Z,17.51
2023-05-19T17:07:20.008Z,17.47
2023-05-19T17:16:44.867Z,17.43
2023-05-19T17:19:18.226Z,17.43
2023-05-19T17:21:51.830Z,17.40
2023-05-19T17:24:27.057Z,17.38
2023-05-19T17:27:01.044Z,17.35
2023-05-19T17:29:34.163Z,17.33
2023-05-19T17:32:10.870Z,17.31
2023-05-19T17:45:22.818Z,17.17
2023-05-19T17:47:56.108Z,17.14
2023-05-19T17:50:29.797Z,17.12
2023-05-19T17:53:03.944Z,17.13
2023-05-19T17:55:38.811Z,17.13
2023-05-19T18:11:59.792Z,16.96
2023-05-19T18:14:39.814Z,16.92
2023-05-19T18:17:13.185Z,16.90
2023-05-19T18:19:46.831Z,16.88
2023-05-19T18:22:20.092Z,16.87
2023-05-19T18:24:53.858Z,16.85
2023-05-19T18:27:29.035Z,16.85
2023-05-19T18:36:57.810Z,16.80
2023-05-19T18:39:31.064Z,16.78
2023-05-19T18:42:04.831Z,16.76
2023-05-19T18:44:39.964Z,16.74
2023-05-19T18:47:13.807Z,16.73
2023-05-19T18:49:47.181Z,16.72
2023-05-19T18:52:20.828Z,16.71
2023-05-19T19:05:32.816Z,16.60
2023-05-19T19:08:06.140Z,16.58
2023-05-19T19:10:39.813Z,16.56
2023-05-19T19:13:13.059Z,16.56
2023-05-19T19:15:46.813Z,16.55
2023-05-19T19:32:23.815Z,16.46
2023-05-19T19:35:04.041Z,16.44
2023-05-19T19:37:37.264Z,16.41
2023-05-19T19:40:12.806Z,16.40
2023-05-19T19:42:46.095Z,16.37
2023-05-19T19:45:19.820Z,16.37
2023-05-19T19:58:32.835Z,16.33
2023-05-19T20:01:06.073Z,16.32
2023-05-19T20:03:39.946Z,16.31
2023-05-19T20:06:13.085Z,16.31
2023-05-19T20:08:46.875Z,16.28
2023-05-19T20:11:20.193Z,16.28
2023-05-19T20:24:10.786Z,16.24
2023-05-19T20:26:50.798Z,16.24
2023-05-19T20:29:24.110Z,16.23
2023-05-19T20:31:57.833Z,16.22
2023-05-19T20:34:31.154Z,16.21
2023-05-19T20:37:05.841Z,16.22
2023-05-19T20:50:44.811Z,16.16
2023-05-19T20:53:18.902Z,16.14
2023-05-19T20:55:51.822Z,16.13
2023-05-19T20:58:25.233Z,16.09
2023-05-19T21:00:58.946Z,16.08
2023-05-19T21:03:32.145Z,16.05
2023-05-19T21:06:07.827Z,16.02
2023-05-19T21:19:17.822Z,15.89
2023-05-19T21:21:53.078Z,15.88
2023-05-19T21:24:26.800Z,15.87
2023-05-19T21:27:00.054Z,15.87
2023-05-19T21:29:33.810Z,15.86
2023-05-19T21:32:07.742Z,15.84
2023-05-19T21:44:57.792Z,15.77
2023-05-19T21:47:37.848Z,15.75
2023-05-19T21:50:11.177Z,15.71
2023-05-19T21:52:44.811Z,15.69
2023-05-19T21:55:23.349Z,15.66
2023-05-19T22:11:45.795Z,15.50
2023-05-19T22:14:19.091Z,15.48
2023-05-19T22:16:53.040Z,15.47
2023-05-19T22:19:27.186Z,15.44
2023-05-19T22:22:12.691Z,15.43
2023-05-19T22:24:46.176Z,15.43
2023-05-19T22:27:21.817Z,15.42
2023-05-19T22:37:47.871Z,15.39
2023-05-19T22:40:27.816Z,15.38
2023-05-19T22:43:03.041Z,15.38
2023-05-19T22:45:37.243Z,15.37
2023-05-19T22:48:11.121Z,15.38
2023-05-19T22:50:44.824Z,15.36
2023-05-19T23:04:27.906Z,15.35
2023-05-19T23:07:01.209Z,15.34
2023-05-19T23:09:34.807Z,15.31
2023-05-19T23:12:08.224Z,15.30
2023-05-19T23:14:41.806Z,15.29
2023-05-19T23:17:15.103Z,15.28
2023-05-19T23:33:30.803Z,15.23
2023-05-19T23:36:09.838Z,15.20
2023-05-19T23:38:49.806Z,15.18
2023-05-19T23:41:23.140Z,15.15
2023-05-19T23:43:56.815Z,15.13
2023-05-19T23:46:30.375Z,15.11
2023-05-19T23:59:20.783Z,15.04
